createdAt,value
2018-04-19T00:01:25.806Z,100976.41
2018-04-19T00:03:53.321Z,100979.86
2018-04-19T00:06:20.867Z,100981.55
2018-04-19T00:08:48.406Z,100976.89
2018-04-19T00:11:15.882Z,100981.19
2018-04-19T00:13:43.395Z,100975.59
2018-04-19T00:16:11.774Z,100977.74
2018-04-19T00:18:39.219Z,100980.74
2018-04-19T00:21:06.707Z,100976.48
2018-04-19T00:23:34.174Z,100977.77
2018-04-19T00:26:03.102Z,100975.59
2018-04-19T00:28:30.702Z,100968.33
2018-04-19T00:30:58.227Z,100967.47
2018-04-19T00:33:25.771Z,100969.62
2018-04-19T00:35:53.256Z,100967.89
2018-04-19T00:38:20.819Z,100970.02
2018-04-19T00:40:48.368Z,100970.44
2018-04-19T00:43:15.834Z,100972.16
2018-04-19T00:45:43.314Z,100967.47
2018-04-19T00:48:10.783Z,100961.03
2018-04-19T00:50:38.301Z,100965.33
2018-04-19T00:53:09.556Z,100967.91
2018-04-19T00:55:37.064Z,100967.47
2018-04-19T00:58:04.561Z,100966.23
2018-04-19T01:00:32.043Z,100969.20
2018-04-19T01:02:59.527Z,100964.52
2018-04-19T01:05:27.048Z,100954.22
2018-04-19T01:07:54.524Z,100961.07
2018-04-19T01:10:22.032Z,100956.37
2018-04-19T01:12:49.542Z,100955.50
2018-04-19T01:15:17.015Z,100961.49
2018-04-19T01:17:45.249Z,100962.31
2018-04-19T01:20:12.761Z,100970.45
2018-04-19T01:22:40.230Z,100971.76
2018-04-19T01:25:07.742Z,100973.48
2018-04-19T01:27:35.230Z,100974.33
2018-04-19T01:30:02.757Z,100971.75
2018-04-19T01:32:30.253Z,100972.63
2018-04-19T01:47:54.888Z,100979.16
2018-04-19T01:50:22.425Z,100974.03
2018-04-19T01:52:49.918Z,100976.15
2018-04-19T01:55:17.419Z,100979.59
2018-04-19T01:57:44.964Z,100975.73
2018-04-19T02:00:16.630Z,100980.44
2018-04-19T02:02:44.109Z,100973.16
2018-04-19T02:05:11.572Z,100981.30
2018-04-19T02:07:39.026Z,100980.85
2018-04-19T02:10:06.553Z,100983.02
2018-04-19T02:12:34.042Z,100981.73
2018-04-19T02:15:01.503Z,100983.43
2018-04-19T02:17:29.015Z,100978.73
2018-04-19T02:19:56.483Z,100974.45
2018-04-19T02:22:23.953Z,100980.02
2018-04-19T02:24:51.510Z,100982.14
2018-04-19T02:27:18.998Z,100983.88
2018-04-19T02:29:46.495Z,100981.73
2018-04-19T02:32:13.992Z,100975.75
2018-04-19T02:34:41.493Z,100971.89
2018-04-19T02:37:09.008Z,100975.73
2018-04-19T02:39:36.486Z,100975.73
2018-04-19T02:42:03.991Z,100971.88
2018-04-19T02:44:31.545Z,100971.45
2018-04-19T02:46:59.022Z,100969.71
2018-04-19T02:49:27.175Z,100973.16
2018-04-19T02:51:54.661Z,100973.58
2018-04-19T02:54:22.145Z,100972.31
2018-04-19T02:56:49.672Z,100966.75
2018-04-19T02:59:17.139Z,100966.33
2018-04-19T03:01:44.640Z,100963.34
2018-04-19T03:04:12.110Z,100957.77
2018-04-19T03:06:39.612Z,100964.20
2018-04-19T03:09:07.091Z,100960.75
2018-04-19T03:11:34.582Z,100966.30
2018-04-19T03:14:02.055Z,100961.59
2018-04-19T03:16:29.563Z,100963.31
2018-04-19T03:18:57.049Z,100962.48
2018-04-19T03:21:24.530Z,100959.48
2018-04-19T03:23:52.066Z,100956.92
2018-04-19T03:26:19.601Z,100959.06
2018-04-19T03:28:47.075Z,100958.61
2018-04-19T03:31:14.566Z,100959.49
2018-04-19T03:33:42.047Z,100954.34
2018-04-19T03:36:09.527Z,100958.20
2018-04-19T03:38:37.048Z,100958.59
2018-04-19T03:41:04.541Z,100955.59
2018-04-19T03:43:32.054Z,100956.46
2018-04-19T03:45:59.523Z,100957.75
2018-04-19T03:48:27.007Z,100954.33
2018-04-19T03:50:54.512Z,100957.75
2018-04-19T03:53:22.024Z,100950.48
2018-04-19T03:55:49.501Z,100959.46
2018-04-19T03:58:16.986Z,100959.48
2018-04-19T04:00:44.476Z,100952.63
2018-04-19T04:03:11.988Z,100954.74
2018-04-19T04:05:39.457Z,100947.47
2018-04-19T04:08:06.950Z,100955.19
2018-04-19T04:10:34.467Z,100953.03
2018-04-19T04:13:01.949Z,100951.36
2018-04-19T04:15:29.422Z,100951.80
2018-04-19T04:18:08.716Z,100966.75
2018-04-19T04:20:47.986Z,100957.78
2018-04-19T04:23:28.827Z,100968.02
2018-04-19T04:25:56.916Z,100962.92
2018-04-19T04:28:24.406Z,100955.63
2018-04-19T04:30:52.760Z,100961.64
2018-04-19T04:33:20.323Z,100959.91
2018-04-19T04:35:47.793Z,100961.20
2018-04-19T04:38:15.318Z,100958.20
2018-04-19T04:40:42.827Z,100954.77
2018-04-19T04:43:10.293Z,100957.75
2018-04-19T04:45:37.839Z,100952.61
2018-04-19T04:48:05.388Z,100957.28
2018-04-19T04:50:33.503Z,100958.55
2018-04-19T04:53:01.017Z,100950.84
2018-04-19T04:55:28.488Z,100955.09
2018-04-19T04:57:55.953Z,100955.06
2018-04-19T05:00:23.436Z,100952.05
2018-04-19T05:02:50.936Z,100958.88
2018-04-19T05:05:18.403Z,100956.28
2018-04-19T05:07:45.915Z,100958.41
2018-04-19T05:10:13.414Z,100962.67
2018-04-19T05:12:40.880Z,100958.79
2018-04-19T05:15:08.374Z,100957.03
2018-04-19T05:17:35.857Z,100961.27
2018-04-19T05:20:03.376Z,100962.08
2018-04-19T05:22:30.941Z,100963.34
2018-04-19T05:24:58.443Z,100962.39
2018-04-19T05:27:25.916Z,100964.05
2018-04-19T05:29:53.497Z,100962.66
2018-04-19T05:32:20.966Z,100961.28
2018-04-19T05:34:48.426Z,100960.78
2018-04-19T05:37:15.969Z,100954.67
2018-04-19T05:39:43.430Z,100951.14
2018-04-19T05:42:10.941Z,100954.83
2018-04-19T05:44:38.412Z,100952.56
2018-04-19T05:47:06.074Z,100948.20
2018-04-19T05:49:33.532Z,100945.48
2018-04-19T05:52:01.017Z,100945.39
2018-04-19T05:54:28.479Z,100945.25
2018-04-19T05:56:55.957Z,100947.64
2018-04-19T05:59:23.417Z,100947.48
2018-04-19T06:01:50.890Z,100944.78
2018-04-19T06:04:18.372Z,100948.76
2018-04-19T06:06:45.839Z,100950.31
2018-04-19T06:09:13.326Z,100953.43
2018-04-19T06:11:40.813Z,100953.20
2018-04-19T06:14:08.417Z,100953.38
2018-04-19T06:16:35.999Z,100951.89
2018-04-19T06:19:03.578Z,100951.73
2018-04-19T06:21:31.078Z,100946.66
2018-04-19T06:23:58.540Z,100943.16
2018-04-19T06:26:26.034Z,100945.69
2018-04-19T06:28:53.527Z,100945.58
2018-04-19T06:31:20.993Z,100953.11
2018-04-19T06:33:48.502Z,100953.84
2018-04-19T06:36:15.953Z,100952.32
2018-04-19T06:38:43.452Z,100955.41
2018-04-19T06:41:10.918Z,100955.17
2018-04-19T06:43:38.377Z,100950.66
2018-04-19T06:46:05.897Z,100945.34
2018-04-19T06:48:33.392Z,100946.26
2018-04-19T06:51:00.861Z,100945.94
2018-04-19T06:53:28.342Z,100949.61
2018-04-19T06:55:55.839Z,100951.63
2018-04-19T06:58:23.375Z,100944.89
2018-04-19T07:00:50.856Z,100944.66
2018-04-19T07:03:18.380Z,100946.75
2018-04-19T07:05:45.871Z,100938.70
2018-04-19T07:08:13.340Z,100941.23
2018-04-19T07:10:40.821Z,100944.11
2018-04-19T07:13:08.302Z,100946.25
2018-04-19T07:15:35.762Z,100945.70
2018-04-19T07:18:03.260Z,100939.26
2018-04-19T07:20:30.746Z,100949.59
2018-04-19T07:22:58.339Z,100941.97
2018-04-19T07:25:25.842Z,100950.45
2018-04-19T07:27:53.317Z,100949.70
2018-04-19T07:30:20.796Z,100951.97
2018-04-19T07:32:48.281Z,100949.38
2018-04-19T07:35:15.735Z,100952.58
2018-04-19T07:37:43.202Z,100954.92
2018-04-19T07:40:10.692Z,100952.36
2018-04-19T07:42:38.200Z,100949.98
2018-04-19T07:45:05.679Z,100953.87
2018-04-19T07:47:33.248Z,100952.37
2018-04-19T07:50:00.823Z,100953.96
2018-04-19T07:52:28.294Z,100951.48
2018-04-19T07:54:55.769Z,100950.50
2018-04-19T07:57:23.252Z,100948.67
2018-04-19T07:59:50.731Z,100944.42
2018-04-19T08:02:18.218Z,100947.23
2018-04-19T08:04:45.708Z,100944.90
2018-04-19T08:07:13.211Z,100940.94
2018-04-19T08:09:40.681Z,100948.17
2018-04-19T08:12:08.175Z,100944.84
2018-04-19T08:14:37.272Z,100946.67
2018-04-19T08:17:04.745Z,100946.64
2018-04-19T08:19:32.239Z,100949.57
2018-04-19T08:21:59.693Z,100951.91
2018-04-19T08:24:27.168Z,100946.95
2018-04-19T08:26:54.699Z,100945.90
2018-04-19T08:29:22.169Z,100935.08
2018-04-19T08:31:49.659Z,100945.36
2018-04-19T08:34:17.117Z,100943.85
2018-04-19T08:36:44.586Z,100940.58
2018-04-19T08:39:12.057Z,100948.28
2018-04-19T08:41:39.525Z,100953.19
2018-04-19T08:44:07.016Z,100940.50
2018-04-19T08:46:34.543Z,100944.86
2018-04-19T08:49:02.022Z,100937.50
2018-04-19T08:51:29.494Z,100945.30
2018-04-19T08:53:57.001Z,100954.85
2018-04-19T08:56:24.519Z,100932.25
2018-04-19T08:58:51.965Z,100937.39
2018-04-19T09:01:19.460Z,100935.64
2018-04-19T09:03:46.967Z,100943.06
2018-04-19T09:06:14.436Z,100942.28
2018-04-19T09:08:41.919Z,100933.19
2018-04-19T09:11:09.383Z,100924.13
2018-04-19T09:13:36.903Z,100940.80
2018-04-19T09:16:04.395Z,100931.47
2018-04-19T09:18:31.858Z,100936.46
2018-04-19T09:20:59.358Z,100933.33
2018-04-19T09:23:26.821Z,100936.66
2018-04-19T09:25:54.314Z,100941.00
2018-04-19T09:28:21.816Z,100934.17
2018-04-19T09:30:49.279Z,100937.63
2018-04-19T09:33:16.740Z,100929.51
2018-04-19T09:35:44.247Z,100936.94
2018-04-19T09:38:11.754Z,100933.31
2018-04-19T09:40:39.215Z,100932.19
2018-04-19T09:43:06.695Z,100924.09
2018-04-19T09:45:34.206Z,100918.59
2018-04-19T09:48:01.668Z,100920.43
2018-04-19T09:50:29.163Z,100918.91
2018-04-19T09:52:56.659Z,100914.96
2018-04-19T09:55:24.139Z,100918.06
2018-04-19T09:58:03.855Z,100910.45
2018-04-19T10:00:32.289Z,100914.23
2018-04-19T10:02:59.769Z,100919.61
2018-04-19T10:05:27.314Z,100914.10
2018-04-19T10:07:54.879Z,100921.37
2018-04-19T10:10:22.424Z,100921.80
2018-04-19T10:12:49.895Z,100911.92
2018-04-19T10:15:17.362Z,100912.84
2018-04-19T10:17:44.838Z,100918.75
2018-04-19T10:20:12.326Z,100924.95
2018-04-19T10:22:39.815Z,100895.39
2018-04-19T10:25:07.288Z,100896.70
2018-04-19T10:27:34.835Z,100907.06
2018-04-19T10:30:02.265Z,100904.02
2018-04-19T10:32:29.758Z,100897.96
2018-04-19T10:34:57.249Z,100893.63
2018-04-19T10:37:24.749Z,100885.55
2018-04-19T10:39:52.410Z,100889.55
2018-04-19T10:42:19.875Z,100895.23
2018-04-19T10:44:47.354Z,100885.98
2018-04-19T10:47:14.830Z,100869.42
2018-04-19T10:49:42.317Z,100863.95
2018-04-19T10:52:09.849Z,100866.30
2018-04-19T10:54:37.326Z,100862.45
2018-04-19T10:57:04.843Z,100858.80
2018-04-19T10:59:32.333Z,100857.97
2018-04-19T11:01:59.803Z,100860.02
2018-04-19T11:04:27.316Z,100866.34
2018-04-19T11:06:54.805Z,100859.02
2018-04-19T11:09:22.266Z,100852.34
2018-04-19T11:11:49.756Z,100855.51
2018-04-19T11:14:17.220Z,100849.58
2018-04-19T11:16:44.715Z,100839.22
2018-04-19T11:19:12.177Z,100833.45
2018-04-19T11:21:39.630Z,100825.65
2018-04-19T11:24:07.150Z,100828.53
2018-04-19T11:26:34.914Z,100822.20
2018-04-19T11:29:02.395Z,100826.73
2018-04-19T11:31:29.882Z,100828.53
2018-04-19T11:33:57.342Z,100825.52
2018-04-19T11:36:24.838Z,100827.49
2018-04-19T11:38:52.306Z,100819.44
2018-04-19T11:41:19.769Z,100817.41
2018-04-19T11:43:47.255Z,100825.62
2018-04-19T11:46:14.707Z,100829.16
2018-04-19T11:48:42.178Z,100811.21
2018-04-19T11:51:09.638Z,100817.91
2018-04-19T11:53:37.110Z,100812.86
2018-04-19T11:56:04.618Z,100813.35
2018-04-19T11:58:32.079Z,100815.58
2018-04-19T12:00:59.566Z,100816.19
2018-04-19T12:03:27.034Z,100812.89
2018-04-19T12:05:54.502Z,100814.14
2018-04-19T12:08:21.987Z,100808.94
2018-04-19T12:10:49.470Z,100802.66
2018-04-19T12:13:17.021Z,100802.74
2018-04-19T12:15:44.512Z,100802.95
2018-04-19T12:18:11.996Z,100795.27
2018-04-19T12:20:39.476Z,100785.19
2018-04-19T12:23:06.982Z,100790.06
2018-04-19T12:25:34.592Z,100791.71
2018-04-19T12:28:02.080Z,100788.75
2018-04-19T12:30:29.542Z,100789.45
2018-04-19T12:32:57.054Z,100776.86
2018-04-19T12:35:24.526Z,100773.77
2018-04-19T12:37:52.007Z,100768.29
2018-04-19T12:40:19.507Z,100768.63
2018-04-19T12:42:46.974Z,100764.23
2018-04-19T12:45:14.446Z,100758.09
2018-04-19T12:47:41.960Z,100757.23
2018-04-19T12:50:09.427Z,100753.72
2018-04-19T12:52:36.909Z,100751.45
2018-04-19T12:55:04.413Z,100754.21
2018-04-19T13:10:27.119Z,100724.35
2018-04-19T13:12:54.610Z,100726.13
2018-04-19T13:15:22.067Z,100719.59
2018-04-19T13:17:50.175Z,100720.58
2018-04-19T13:20:17.654Z,100710.72
2018-04-19T13:22:45.116Z,100713.01
2018-04-19T13:25:12.633Z,100705.44
2018-04-19T13:27:40.095Z,100694.94
2018-04-19T13:30:07.577Z,100695.09
2018-04-19T13:32:35.788Z,100692.84
2018-04-19T13:35:03.270Z,100687.56
2018-04-19T13:37:30.760Z,100686.28
2018-04-19T13:39:58.214Z,100687.37
2018-04-19T13:42:25.685Z,100685.63
2018-04-19T13:44:53.146Z,100685.19
2018-04-19T13:47:20.677Z,100682.11
2018-04-19T13:49:48.163Z,100674.67
2018-04-19T13:52:15.620Z,100676.63
2018-04-19T13:54:43.078Z,100667.91
2018-04-19T13:57:10.559Z,100666.89
2018-04-19T13:59:38.017Z,100667.60
2018-04-19T14:02:05.506Z,100668.97
2018-04-19T14:04:33.059Z,100660.95
2018-04-19T14:07:00.544Z,100660.77
2018-04-19T14:09:28.107Z,100658.85
2018-04-19T14:11:55.604Z,100644.09
2018-04-19T14:14:23.074Z,100648.43
2018-04-19T14:16:50.583Z,100643.58
2018-04-19T14:19:18.103Z,100642.20
2018-04-19T14:21:45.559Z,100639.20
2018-04-19T14:24:13.036Z,100632.08
2018-04-19T14:26:40.535Z,100630.05
2018-04-19T14:29:08.023Z,100629.92
2018-04-19T14:31:35.590Z,100630.30
2018-04-19T14:34:03.107Z,100628.47
2018-04-19T14:36:30.589Z,100621.14
2018-04-19T14:38:58.039Z,100614.39
2018-04-19T14:41:25.543Z,100618.75
2018-04-19T14:43:53.000Z,100621.73
2018-04-19T14:46:20.490Z,100611.95
2018-04-19T14:48:47.969Z,100618.31
2018-04-19T14:51:15.443Z,100614.24
2018-04-19T14:53:43.865Z,100611.74
2018-04-19T14:56:11.372Z,100619.35
2018-04-19T14:58:38.833Z,100613.82
2018-04-19T15:01:06.313Z,100611.38
2018-04-19T15:03:33.785Z,100603.09
2018-04-19T15:06:01.257Z,100611.81
2018-04-19T15:08:28.752Z,100601.27
2018-04-19T15:10:56.232Z,100609.94
2018-04-19T15:13:23.719Z,100602.45
2018-04-19T15:15:51.225Z,100602.67
2018-04-19T15:18:18.774Z,100597.72
2018-04-19T15:20:46.266Z,100594.02
2018-04-19T15:23:13.811Z,100594.00
2018-04-19T15:25:41.263Z,100597.96
2018-04-19T15:28:08.739Z,100594.56
2018-04-19T15:30:36.257Z,100600.11
2018-04-19T15:33:03.719Z,100593.45
2018-04-19T15:35:33.106Z,100590.66
2018-04-19T15:38:00.604Z,100597.97
2018-04-19T15:40:29.250Z,100583.48
2018-04-19T15:42:56.875Z,100590.63
2018-04-19T15:45:24.536Z,100575.27
2018-04-19T15:47:52.098Z,100574.18
2018-04-19T15:50:20.483Z,100583.21
2018-04-19T15:52:48.041Z,100576.15
2018-04-19T15:55:15.643Z,100576.08
2018-04-19T15:57:43.239Z,100575.09
2018-04-19T16:00:12.871Z,100574.29
2018-04-19T16:02:40.490Z,100568.88
2018-04-19T16:05:08.744Z,100571.77
2018-04-19T16:07:36.352Z,100566.21
2018-04-19T16:10:04.216Z,100565.73
2018-04-19T16:22:13.522Z,100541.87
2018-04-19T16:24:41.057Z,100540.59
2018-04-19T16:27:08.527Z,100540.25
2018-04-19T16:29:36.010Z,100540.89
2018-04-19T16:32:03.484Z,100535.13
2018-04-19T16:34:30.952Z,100537.73
2018-04-19T16:36:58.451Z,100538.55
2018-04-19T16:39:25.915Z,100526.78
2018-04-19T16:41:53.430Z,100522.88
2018-04-19T16:44:21.315Z,100525.48
2018-04-19T16:46:48.809Z,100522.13
2018-04-19T16:49:16.291Z,100520.98
2018-04-19T16:51:43.765Z,100520.80
2018-04-19T16:54:11.244Z,100520.83
2018-04-19T16:56:38.760Z,100528.41
2018-04-19T16:59:06.279Z,100513.24
2018-04-19T17:01:33.781Z,100512.20
2018-04-19T17:04:01.290Z,100516.17
2018-04-19T17:06:28.826Z,100509.64
2018-04-19T17:08:56.304Z,100503.38
2018-04-19T17:11:23.791Z,100517.48
2018-04-19T17:13:51.275Z,100508.49
2018-04-19T17:16:18.763Z,100511.12
2018-04-19T17:18:47.724Z,100505.83
2018-04-19T17:21:15.180Z,100504.69
2018-04-19T17:23:42.686Z,100508.94
2018-04-19T17:26:10.220Z,100513.77
2018-04-19T17:28:37.710Z,100506.07
2018-04-19T17:31:05.195Z,100506.41
2018-04-19T17:33:32.677Z,100504.22
2018-04-19T17:36:00.167Z,100509.80
2018-04-19T17:38:27.657Z,100513.73
2018-04-19T17:40:55.194Z,100513.61
2018-04-19T17:43:22.732Z,100522.39
2018-04-19T17:45:50.226Z,100512.22
2018-04-19T17:48:17.744Z,100511.37
2018-04-19T17:50:45.229Z,100517.94
2018-04-19T17:53:12.730Z,100513.88
2018-04-19T17:55:40.244Z,100517.88
2018-04-19T17:58:07.746Z,100517.12
2018-04-19T18:00:35.244Z,100518.39
2018-04-19T18:03:02.705Z,100512.34
2018-04-19T18:05:30.259Z,100518.28
2018-04-19T18:07:57.722Z,100524.16
2018-04-19T18:10:25.955Z,100520.66
2018-04-19T18:12:53.455Z,100525.06
2018-04-19T18:15:20.947Z,100527.77
2018-04-19T18:17:48.468Z,100528.55
2018-04-19T18:20:15.969Z,100522.99
2018-04-19T18:22:43.455Z,100525.00
2018-04-19T18:25:10.956Z,100528.06
2018-04-19T18:27:38.420Z,100529.31
2018-04-19T18:30:05.945Z,100524.23
2018-04-19T18:32:33.426Z,100536.88
2018-04-19T18:35:00.882Z,100531.98
2018-04-19T18:37:28.342Z,100536.48
2018-04-19T18:39:55.838Z,100530.99
2018-04-19T18:42:23.315Z,100529.09
2018-04-19T18:44:51.818Z,100536.77
2018-04-19T18:47:19.402Z,100539.83
2018-04-19T18:52:20.616Z,100538.37
2018-04-19T18:54:48.126Z,100543.14
2018-04-19T18:57:15.635Z,100542.91
2018-04-19T18:59:43.154Z,100540.44
2018-04-19T19:02:10.644Z,100546.37
2018-04-19T19:04:38.183Z,100546.81
2018-04-19T19:07:05.812Z,100543.48
2018-04-19T19:09:33.277Z,100541.25
2018-04-19T19:12:00.771Z,100544.17
2018-04-19T19:14:28.690Z,100542.22
2018-04-19T19:16:56.192Z,100541.87
2018-04-19T19:19:35.283Z,100543.20
2018-04-19T19:22:02.729Z,100543.27
2018-04-19T19:24:30.200Z,100538.11
2018-04-19T19:26:57.977Z,100545.47
2018-04-19T19:29:25.452Z,100539.07
2018-04-19T19:31:52.991Z,100537.31
2018-04-19T19:34:20.480Z,100541.05
2018-04-19T19:36:47.943Z,100539.05
2018-04-19T19:39:15.467Z,100540.05
2018-04-19T19:41:43.007Z,100534.14
2018-04-19T19:44:10.537Z,100536.59
2018-04-19T19:46:38.022Z,100539.34
2018-04-19T19:49:05.509Z,100538.84
2018-04-19T19:51:33.005Z,100541.00
2018-04-19T19:54:00.534Z,100541.20
2018-04-19T19:56:27.998Z,100544.55
2018-04-19T19:58:55.485Z,100539.55
2018-04-19T20:01:22.963Z,100538.36
2018-04-19T20:03:50.468Z,100543.48
2018-04-19T20:06:17.951Z,100544.66
2018-04-19T20:08:45.419Z,100538.91
2018-04-19T20:11:12.949Z,100538.09
2018-04-19T20:13:40.429Z,100532.08
2018-04-19T20:16:08.025Z,100541.63
2018-04-19T20:18:35.546Z,100535.13
2018-04-19T20:21:03.017Z,100538.95
2018-04-19T20:23:30.486Z,100541.08
2018-04-19T20:25:57.973Z,100546.11
2018-04-19T20:28:25.439Z,100560.39
2018-04-19T20:30:52.991Z,100564.88
2018-04-19T20:33:20.448Z,100559.75
2018-04-19T20:35:47.921Z,100562.88
2018-04-19T20:38:15.460Z,100573.33
2018-04-19T20:40:42.957Z,100573.00
2018-04-19T20:43:10.417Z,100573.03
2018-04-19T20:45:37.891Z,100573.67
2018-04-19T20:48:05.351Z,100576.02
2018-04-19T20:50:32.819Z,100577.30
2018-04-19T20:53:00.280Z,100580.36
2018-04-19T20:55:28.104Z,100580.48
2018-04-19T20:57:55.580Z,100581.03
2018-04-19T21:00:23.064Z,100581.14
2018-04-19T21:02:51.556Z,100575.88
2018-04-19T21:05:19.093Z,100581.21
2018-04-19T21:07:46.585Z,100580.58
2018-04-19T21:10:14.114Z,100579.08
2018-04-19T21:12:41.598Z,100576.69
2018-04-19T21:15:09.162Z,100580.94
2018-04-19T21:17:36.615Z,100573.95
2018-04-19T21:20:04.855Z,100574.59
2018-04-19T21:22:32.327Z,100577.28
2018-04-19T21:24:59.798Z,100574.16
2018-04-19T21:27:27.261Z,100569.75
2018-04-19T21:29:54.741Z,100566.80
2018-04-19T21:32:22.212Z,100569.27
2018-04-19T21:34:49.678Z,100570.27
2018-04-19T21:37:17.164Z,100564.94
2018-04-19T21:39:44.643Z,100564.16
2018-04-19T21:42:12.164Z,100568.98
2018-04-19T21:44:39.618Z,100572.35
2018-04-19T21:47:07.114Z,100567.05
2018-04-19T21:49:34.642Z,100568.30
2018-04-19T21:52:02.127Z,100566.44
2018-04-19T21:54:29.664Z,100565.52
2018-04-19T21:56:57.147Z,100566.20
2018-04-19T21:59:24.847Z,100561.33
2018-04-19T22:01:53.887Z,100561.52
2018-04-19T22:04:21.423Z,100569.62
2018-04-19T22:06:48.970Z,100563.38
2018-04-19T22:09:16.469Z,100566.91
2018-04-19T22:11:43.935Z,100571.26
2018-04-19T22:14:11.481Z,100569.53
2018-04-19T22:16:38.964Z,100569.45
2018-04-19T22:19:06.487Z,100571.83
2018-04-19T22:21:33.968Z,100569.75
2018-04-19T22:24:01.436Z,100571.33
2018-04-19T22:26:29.008Z,100571.92
2018-04-19T22:28:56.470Z,100564.53
2018-04-19T22:31:23.955Z,100579.45
2018-04-19T22:33:51.405Z,100579.13
2018-04-19T22:36:18.921Z,100571.48
2018-04-19T22:38:46.392Z,100568.41
2018-04-19T22:41:13.847Z,100567.55
2018-04-19T22:43:41.410Z,100573.05
2018-04-19T22:46:08.897Z,100577.30
2018-04-19T22:48:36.355Z,100570.84
2018-04-19T22:51:03.821Z,100577.95
2018-04-19T22:53:31.313Z,100571.73
2018-04-19T22:55:58.774Z,100574.80
2018-04-19T22:58:26.228Z,100578.35
2018-04-19T23:00:53.702Z,100575.35
2018-04-19T23:03:21.216Z,100573.11
2018-04-19T23:05:48.699Z,100569.11
2018-04-19T23:08:16.187Z,100579.14
2018-04-19T23:10:43.661Z,100574.36
2018-04-19T23:13:11.116Z,100577.06
2018-04-19T23:15:38.607Z,100576.95
2018-04-19T23:18:06.074Z,100573.78
2018-04-19T23:20:33.561Z,100576.13
2018-04-19T23:23:01.021Z,100577.13
2018-04-19T23:25:28.486Z,100575.84
2018-04-19T23:27:56.002Z,100578.76
2018-04-19T23:30:23.937Z,100581.88
2018-04-19T23:32:51.460Z,100581.60
2018-04-19T23:35:18.923Z,100582.05
2018-04-19T23:37:46.391Z,100583.09
2018-04-19T23:40:13.861Z,100577.95
2018-04-19T23:42:41.318Z,100581.91
2018-04-19T23:45:08.793Z,100578.95
2018-04-19T23:47:36.293Z,100588.28
2018-04-19T23:50:03.782Z,100583.11
2018-04-19T23:52:31.238Z,100584.64
2018-04-19T23:54:58.730Z,100582.11
2018-04-19T23:57:26.211Z,100582.97
2018-04-19T23:59:54.130Z,100582.34
